createdAt,value
2022-08-11T00:02:01.236Z,100239.72
2022-08-11T00:04:37.146Z,100229.94
2022-08-11T00:07:06.863Z,100231.78
2022-08-11T00:09:39.328Z,100241.63
2022-08-11T00:12:17.148Z,100244.31
2022-08-11T00:14:46.373Z,100239.91
2022-08-11T00:17:16.045Z,100239.94
2022-08-11T00:20:12.863Z,100238.16
2022-08-11T00:22:42.253Z,100241.72
2022-08-11T00:25:20.409Z,100239.94
2022-08-11T00:27:49.435Z,100239.03
2022-08-11T00:30:17.437Z,100236.38
2022-08-11T00:32:56.123Z,100241.75
2022-08-11T00:35:55.701Z,100242.69
2022-08-11T00:38:26.361Z,100246.28
2022-08-11T00:41:01.528Z,100252.53
2022-08-11T00:43:51.952Z,100251.69
2022-08-11T00:47:05.489Z,100265.97
2022-08-11T00:50:03.608Z,100260.66
2022-08-11T00:53:29.557Z,100251.75
2022-08-11T00:56:43.580Z,100257.13
2022-08-11T01:00:16.355Z,100253.56
2022-08-11T01:03:53.926Z,100256.25
2022-08-11T01:06:58.481Z,100251.84
2022-08-11T01:10:01.628Z,100254.53
2022-08-11T01:13:15.565Z,100260.75
2022-08-11T01:16:13.139Z,100263.44
2022-08-11T01:19:05.922Z,100263.44
2022-08-11T01:22:03.788Z,100266.09
2022-08-11T01:25:01.908Z,100271.47
2022-08-11T01:28:41.643Z,100267.00
2022-08-11T01:31:33.424Z,100263.41
2022-08-11T01:34:27.147Z,100269.69
2022-08-11T01:37:52.465Z,100260.75
2022-08-11T01:41:09.802Z,100259.91
2022-08-11T01:44:17.333Z,100262.59
2022-08-11T01:47:09.016Z,100259.91
2022-08-11T01:50:10.639Z,100252.78
2022-08-11T01:53:28.602Z,100254.56
2022-08-11T01:56:26.471Z,100256.38
2022-08-11T01:59:08.193Z,100254.59
2022-08-11T02:02:47.433Z,100259.06
2022-08-11T02:06:01.276Z,100254.63
2022-08-11T02:08:50.670Z,100253.72
2022-08-11T02:11:35.195Z,100251.97
2022-08-11T02:14:21.409Z,100250.22
2022-08-11T02:17:38.602Z,100241.28
2022-08-11T02:20:44.066Z,100240.41
2022-08-11T02:24:05.449Z,100243.94
2022-08-11T02:27:02.627Z,100238.63
2022-08-11T02:30:21.737Z,100234.19
2022-08-11T02:33:23.083Z,100240.41
2022-08-11T02:36:34.952Z,100239.53
2022-08-11T02:39:13.296Z,100243.09
2022-08-11T02:42:42.445Z,100240.41
2022-08-11T02:45:31.106Z,100234.22
2022-08-11T02:48:35.094Z,100232.41
2022-08-11T02:51:14.118Z,100232.41
2022-08-11T02:54:22.739Z,100231.53
2022-08-11T03:00:42.401Z,100219.06
2022-08-11T03:03:33.158Z,100218.19
2022-08-11T03:06:39.234Z,100219.03
2022-08-11T03:10:10.716Z,100222.63
2022-08-11T03:13:35.318Z,100219.94
2022-08-11T03:16:48.343Z,100229.72
2022-08-11T03:20:43.707Z,100233.28
2022-08-11T03:23:56.273Z,100240.41
2022-08-11T03:26:38.605Z,100229.72
2022-08-11T03:30:08.891Z,100228.84
2022-08-11T03:33:41.701Z,100233.28
2022-08-11T03:36:27.870Z,100231.53
2022-08-11T03:39:19.957Z,100234.19
2022-08-11T03:42:41.446Z,100233.28
2022-08-11T03:45:28.556Z,100227.03
2022-08-11T03:48:53.707Z,100224.38
2022-08-11T03:52:07.853Z,100224.38
2022-08-11T03:55:40.485Z,100217.25
2022-08-11T03:58:42.078Z,100223.50
2022-08-11T04:02:03.164Z,100217.25
2022-08-11T04:05:11.299Z,100221.69
2022-08-11T04:08:53.793Z,100227.94
2022-08-11T04:12:35.821Z,100226.16
2022-08-11T04:15:32.766Z,100225.25
2022-08-11T04:18:47.536Z,100227.91
2022-08-11T04:21:35.992Z,100233.25
2022-08-11T04:25:08.237Z,100225.25
2022-08-11T04:28:50.155Z,100224.34
2022-08-11T04:31:48.816Z,100229.66
2022-08-11T04:35:05.849Z,100233.22
2022-08-11T04:37:43.868Z,100227.00
2022-08-11T04:40:40.337Z,100239.47
2022-08-11T04:44:06.772Z,100241.25
2022-08-11T04:48:01.772Z,100236.81
2022-08-11T04:51:39.509Z,100245.69
2022-08-11T04:55:09.929Z,100245.69
2022-08-11T04:58:35.684Z,100247.50
2022-08-11T05:02:17.023Z,100253.72
2022-08-11T05:05:37.418Z,100262.63
2022-08-11T05:08:55.486Z,100268.88
2022-08-11T05:12:10.036Z,100275.09
2022-08-11T05:15:11.326Z,100281.31
2022-08-11T05:18:37.510Z,100277.78
2022-08-11T05:21:44.394Z,100271.56
2022-08-11T05:24:49.949Z,100271.56
2022-08-11T05:27:38.081Z,100268.91
2022-08-11T05:30:27.236Z,100264.44
2022-08-11T05:33:30.701Z,100264.44
2022-08-11T05:36:13.053Z,100266.22
2022-08-11T05:38:59.099Z,100255.56
2022-08-11T05:41:48.300Z,100245.75
2022-08-11T05:44:39.365Z,100258.22
2022-08-11T05:47:26.149Z,100255.56
2022-08-11T05:50:13.764Z,100252.00
2022-08-11T05:53:09.332Z,100260.03
2022-08-11T05:56:04.003Z,100260.94
2022-08-11T05:58:47.482Z,100250.25
2022-08-11T06:01:32.336Z,100253.78
2022-08-11T06:04:16.181Z,100249.34
2022-08-11T06:07:09.498Z,100256.47
2022-08-11T06:09:51.387Z,100254.66
2022-08-11T06:12:33.474Z,100256.47
2022-08-11T06:15:13.096Z,100262.69
2022-08-11T06:17:49.165Z,100261.78
2022-08-11T06:20:18.633Z,100268.94
2022-08-11T06:22:55.318Z,100273.38
2022-08-11T06:25:30.598Z,100274.25
2022-08-11T06:27:59.015Z,100275.13
2022-08-11T06:30:45.879Z,100273.34
2022-08-11T06:33:43.886Z,100260.81
2022-08-11T06:36:54.538Z,100267.03
2022-08-11T06:40:05.463Z,100261.66
2022-08-11T06:42:55.031Z,100258.03
2022-08-11T06:45:37.578Z,100260.75
2022-08-11T06:48:10.113Z,100258.09
2022-08-11T06:50:56.662Z,100256.38
2022-08-11T06:53:24.274Z,100261.72
2022-08-11T06:56:10.385Z,100263.47
2022-08-11T06:59:00.483Z,100264.38
2022-08-11T07:01:54.563Z,100262.63
2022-08-11T07:04:41.693Z,100258.16
2022-08-11T07:08:34.694Z,100265.25
2022-08-11T07:12:09.212Z,100260.69
2022-08-11T07:15:12.616Z,100264.19
2022-08-11T07:18:10.937Z,100269.53
2022-08-11T07:21:02.366Z,100266.88
2022-08-11T07:23:55.120Z,100257.88
2022-08-11T07:26:45.282Z,100254.28
2022-08-11T07:29:14.834Z,100249.78
2022-08-11T07:31:51.252Z,100244.41
2022-08-11T07:34:35.670Z,100245.34
2022-08-11T07:37:17.893Z,100239.97
2022-08-11T07:39:48.530Z,100239.97
2022-08-11T07:42:26.237Z,100241.50
2022-08-11T07:45:14.400Z,100248.56
2022-08-11T07:48:02.100Z,100239.50
2022-08-11T07:50:54.183Z,100236.75
2022-08-11T07:53:23.636Z,100241.22
2022-08-11T07:55:53.655Z,100238.50
2022-08-11T07:58:52.261Z,100244.69
2022-08-11T08:01:43.291Z,100235.84
2022-08-11T08:04:34.481Z,100237.66
2022-08-11T08:07:23.114Z,100237.47
2022-08-11T08:10:09.997Z,100232.00
2022-08-11T08:13:00.909Z,100236.31
2022-08-11T08:15:48.781Z,100238.91
2022-08-11T08:18:27.017Z,100231.72
2022-08-11T08:21:11.918Z,100231.63
2022-08-11T08:23:53.928Z,100226.38
2022-08-11T08:26:43.150Z,100226.25
2022-08-11T08:29:38.760Z,100227.72
2022-08-11T08:32:08.982Z,100230.38
2022-08-11T08:34:40.246Z,100231.19
2022-08-11T08:37:15.835Z,100231.03
2022-08-11T08:39:58.532Z,100231.22
2022-08-11T08:42:33.159Z,100224.75
2022-08-11T08:45:15.718Z,100220.13
2022-08-11T08:48:01.645Z,100227.13
2022-08-11T08:50:56.690Z,100224.59
2022-08-11T08:53:32.807Z,100214.53
2022-08-11T08:56:02.193Z,100225.19
2022-08-11T08:58:31.241Z,100221.66
2022-08-11T09:01:00.938Z,100215.16
2022-08-11T09:03:41.791Z,100215.78
2022-08-11T09:06:17.565Z,100211.06
2022-08-11T09:08:46.501Z,100218.91
2022-08-11T09:11:36.733Z,100210.75
2022-08-11T09:14:08.391Z,100213.22
2022-08-11T09:16:39.470Z,100212.75
2022-08-11T09:19:08.706Z,100214.09
2022-08-11T09:21:48.810Z,100218.56
2022-08-11T09:24:37.577Z,100213.09
2022-08-11T09:27:08.624Z,100215.06
2022-08-11T09:29:38.116Z,100205.03
2022-08-11T09:32:07.089Z,100203.16
2022-08-11T09:34:38.738Z,100201.28
2022-08-11T09:37:54.649Z,100195.56
2022-08-11T09:40:31.263Z,100202.19
2022-08-11T09:43:22.342Z,100196.53
2022-08-11T09:45:53.468Z,100186.78
2022-08-11T09:48:24.810Z,100195.09
2022-08-11T09:50:58.982Z,100187.38
2022-08-11T09:53:35.778Z,100186.53
2022-08-11T09:56:35.131Z,100183.41
2022-08-11T09:59:05.808Z,100182.03
2022-08-11T10:01:52.666Z,100175.75
2022-08-11T10:04:46.146Z,100174.75
2022-08-11T10:07:19.474Z,100184.78
2022-08-11T10:10:02.030Z,100172.31
2022-08-11T10:12:42.597Z,100167.09
2022-08-11T10:15:33.145Z,100168.00
2022-08-11T10:18:42.458Z,100160.66
2022-08-11T10:21:28.172Z,100155.88
2022-08-11T10:24:19.415Z,100153.03
2022-08-11T10:26:56.677Z,100147.25
2022-08-11T10:29:51.194Z,100143.53
2022-08-11T10:32:58.968Z,100135.19
2022-08-11T10:35:32.633Z,100136.03
2022-08-11T10:38:06.059Z,100139.44
2022-08-11T10:40:40.020Z,100127.44
2022-08-11T10:44:01.247Z,100114.78
2022-08-11T10:46:29.859Z,100114.81
2022-08-11T10:49:00.019Z,100117.75
2022-08-11T10:51:50.054Z,100116.03
2022-08-11T10:54:37.488Z,100116.25
2022-08-11T10:57:24.224Z,100118.25
2022-08-11T10:59:52.236Z,100107.41
2022-08-11T11:02:20.088Z,100111.59
2022-08-11T11:05:13.178Z,100106.34
2022-08-11T11:08:00.261Z,100105.50
2022-08-11T11:10:27.732Z,100096.19
2022-08-11T11:13:18.276Z,100102.03
2022-08-11T11:16:06.645Z,100093.66
2022-08-11T11:18:36.918Z,100090.31
2022-08-11T11:21:13.102Z,100083.78
2022-08-11T11:24:12.477Z,100084.16
2022-08-11T11:26:58.919Z,100075.41
2022-08-11T11:30:06.653Z,100073.69
2022-08-11T11:33:19.318Z,100076.94
2022-08-11T11:36:17.160Z,100066.47
2022-08-11T11:38:45.465Z,100069.53
2022-08-11T11:41:26.003Z,100057.81
2022-08-11T11:43:57.257Z,100059.09
2022-08-11T11:46:31.733Z,100053.91
2022-08-11T11:49:13.985Z,100060.00
2022-08-11T11:51:50.113Z,100054.41
2022-08-11T11:54:36.656Z,100058.59
2022-08-11T11:57:24.379Z,100054.44
2022-08-11T12:00:12.106Z,100060.94
2022-08-11T12:02:41.624Z,100056.91
2022-08-11T12:05:11.316Z,100052.09
2022-08-11T12:08:05.273Z,100052.00
2022-08-11T12:11:19.468Z,100046.41
2022-08-11T12:13:52.296Z,100042.50
2022-08-11T12:16:32.825Z,100043.53
2022-08-11T12:19:21.473Z,100037.78
2022-08-11T12:22:08.101Z,100030.41
2022-08-11T12:24:55.976Z,100021.91
2022-08-11T12:27:25.429Z,100022.78
2022-08-11T12:30:05.833Z,100018.47
2022-08-11T12:32:38.206Z,100017.59
2022-08-11T12:35:07.783Z,100009.19
2022-08-11T12:37:52.587Z,100013.50
2022-08-11T12:41:15.239Z,100004.97
2022-08-11T12:43:56.899Z,100008.44
2022-08-11T12:46:38.178Z,100001.72
2022-08-11T12:49:45.190Z,100000.34
2022-08-11T12:52:26.620Z,100012.28
2022-08-11T12:55:13.694Z,100001.00
2022-08-11T12:58:05.861Z,99999.63
2022-08-11T13:00:52.034Z,99998.16
2022-08-11T13:03:40.112Z,99990.91
2022-08-11T13:06:08.694Z,99974.91
2022-08-11T13:08:39.453Z,99982.19
2022-08-11T13:11:55.757Z,99975.59
2022-08-11T13:14:16.970Z,99974.88
2022-08-11T13:17:04.390Z,99966.09
2022-08-11T13:19:34.419Z,99968.06
2022-08-11T13:22:05.091Z,99973.78
2022-08-11T13:24:34.226Z,99971.69
2022-08-11T13:27:03.025Z,99969.03
2022-08-11T13:29:30.735Z,99955.13
2022-08-11T13:32:01.956Z,99949.38
2022-08-11T13:34:31.270Z,99948.69
2022-08-11T13:37:02.504Z,99952.00
2022-08-11T13:39:32.441Z,99937.56
2022-08-11T13:42:03.858Z,99929.47
2022-08-11T13:44:38.361Z,99945.00
2022-08-11T13:47:12.137Z,99930.06
2022-08-11T13:49:41.815Z,99923.88
2022-08-11T13:52:17.609Z,99924.28
2022-08-11T13:54:48.364Z,99919.16
2022-08-11T13:58:18.289Z,99914.03
2022-08-11T14:00:20.884Z,99907.66
2022-08-11T14:02:57.226Z,99903.31
2022-08-11T14:05:40.316Z,99897.59
2022-08-11T14:08:38.259Z,99898.97
2022-08-11T14:12:21.054Z,99896.13
2022-08-11T14:14:33.314Z,99890.75
2022-08-11T14:17:08.905Z,99891.97
2022-08-11T14:19:41.438Z,99885.09
2022-08-11T14:22:10.006Z,99894.03
2022-08-11T14:24:44.098Z,99885.38
2022-08-11T14:28:29.493Z,99885.06
2022-08-11T14:30:00.800Z,99879.22
2022-08-11T14:32:28.455Z,99871.25
2022-08-11T14:34:56.828Z,99871.66
2022-08-11T14:37:27.870Z,99872.41
2022-08-11T14:40:03.775Z,99861.84
2022-08-11T14:42:50.178Z,99862.31
2022-08-11T14:45:54.177Z,99853.78
2022-08-11T14:48:24.919Z,99855.81
2022-08-11T14:50:53.008Z,99847.91
2022-08-11T14:53:23.406Z,99856.69
2022-08-11T14:56:12.599Z,99858.03
2022-08-11T14:58:40.373Z,99844.41
2022-08-11T15:01:27.975Z,99828.22
2022-08-11T15:04:34.178Z,99851.25
2022-08-11T15:06:47.349Z,99844.53
2022-08-11T15:09:15.860Z,99836.78
2022-08-11T15:12:04.393Z,99830.31
2022-08-11T15:14:50.322Z,99830.31
2022-08-11T15:17:24.298Z,99822.31
2022-08-11T15:20:29.000Z,99825.56
2022-08-11T15:23:15.748Z,99824.94
2022-08-11T15:25:51.862Z,99819.38
2022-08-11T15:28:40.325Z,99827.28
2022-08-11T15:31:26.498Z,99815.25
2022-08-11T15:34:21.649Z,99815.00
2022-08-11T15:37:14.281Z,99819.72
2022-08-11T15:40:31.212Z,99812.00
2022-08-11T15:43:38.929Z,99804.88
2022-08-11T15:46:21.156Z,99811.09
2022-08-11T15:49:00.102Z,99804.88
2022-08-11T15:51:41.192Z,99805.31
2022-08-11T15:54:15.723Z,99802.47
2022-08-11T15:56:48.669Z,99795.78
2022-08-11T15:59:42.296Z,99799.63
2022-08-11T16:02:32.208Z,99801.31
2022-08-11T16:05:04.258Z,99799.78
2022-08-11T16:07:39.813Z,99796.50
2022-08-11T16:10:21.450Z,99801.81
2022-08-11T16:13:06.236Z,99795.41
2022-08-11T16:15:58.782Z,99794.66
2022-08-11T16:18:42.969Z,99777.47
2022-08-11T16:21:34.955Z,99780.69
2022-08-11T16:24:09.113Z,99782.91
2022-08-11T16:27:10.235Z,99782.06
2022-08-11T16:29:46.498Z,99779.78
2022-08-11T16:32:23.104Z,99775.78
2022-08-11T16:35:26.492Z,99772.09
2022-08-11T16:38:14.046Z,99769.56
2022-08-11T16:40:43.869Z,99772.28
2022-08-11T16:43:36.736Z,99763.59
2022-08-11T16:46:26.393Z,99770.31
2022-08-11T16:48:55.770Z,99766.88
2022-08-11T16:51:23.591Z,99758.88
2022-08-11T16:54:03.860Z,99763.22
2022-08-11T16:56:54.120Z,99763.63
2022-08-11T16:59:37.230Z,99767.16
2022-08-11T17:02:34.734Z,99759.69
2022-08-11T17:05:54.671Z,99757.75
2022-08-11T17:09:11.300Z,99758.91
2022-08-11T17:12:11.732Z,99758.25
2022-08-11T17:14:49.525Z,99762.38
2022-08-11T17:17:34.456Z,99760.06
2022-08-11T17:20:40.370Z,99763.34
2022-08-11T17:23:16.807Z,99770.75
2022-08-11T17:25:59.399Z,99765.88
2022-08-11T17:28:34.464Z,99767.28
2022-08-11T17:31:22.981Z,99771.13
2022-08-11T17:34:11.323Z,99775.72
2022-08-11T17:36:45.092Z,99780.31
2022-08-11T17:39:14.498Z,99773.91
2022-08-11T17:42:02.821Z,99777.63
2022-08-11T17:44:51.829Z,99786.78
2022-08-11T17:47:39.527Z,99788.81
2022-08-11T17:50:17.221Z,99787.09
2022-08-11T17:53:06.637Z,99780.91
2022-08-11T17:55:57.861Z,99786.59
2022-08-11T17:58:46.176Z,99777.78
2022-08-11T18:01:15.732Z,99782.53
2022-08-11T18:03:54.571Z,99781.13
2022-08-11T18:06:34.077Z,99783.94
2022-08-11T18:09:27.180Z,99783.16
2022-08-11T18:12:15.079Z,99787.19
2022-08-11T18:15:07.245Z,99781.66
2022-08-11T18:17:55.912Z,99791.22
2022-08-11T18:20:44.056Z,99792.69
2022-08-11T18:23:46.017Z,99791.34
2022-08-11T18:26:38.833Z,99792.66
2022-08-11T18:29:27.339Z,99784.22
2022-08-11T18:32:20.975Z,99788.94
2022-08-11T18:35:11.469Z,99790.19
2022-08-11T18:38:06.238Z,99799.84
2022-08-11T18:40:54.742Z,99799.09
2022-08-11T18:43:43.411Z,99794.75
2022-08-11T18:46:32.119Z,99806.63
2022-08-11T18:49:34.266Z,99811.28
2022-08-11T18:52:35.883Z,99810.56
2022-08-11T18:55:28.562Z,99803.63
2022-08-11T18:58:16.551Z,99811.06
2022-08-11T19:01:05.560Z,99812.97
2022-08-11T19:03:54.553Z,99810.25
2022-08-11T19:06:51.617Z,99810.38
2022-08-11T19:09:38.714Z,99815.03
2022-08-11T19:12:28.294Z,99814.25
2022-08-11T19:15:17.650Z,99824.28
2022-08-11T19:18:05.242Z,99830.63
2022-08-11T19:20:53.621Z,99826.31
2022-08-11T19:23:53.786Z,99826.34
2022-08-11T19:26:41.322Z,99822.88
2022-08-11T19:30:06.942Z,99821.00
2022-08-11T19:32:35.613Z,99824.63
2022-08-11T19:35:23.626Z,99828.41
2022-08-11T19:38:11.110Z,99830.38
2022-08-11T19:40:58.725Z,99831.69
2022-08-11T19:43:47.863Z,99836.53
2022-08-11T19:46:37.120Z,99827.84
2022-08-11T19:49:24.131Z,99835.34
2022-08-11T19:52:10.517Z,99840.09
2022-08-11T19:54:59.474Z,99841.09
2022-08-11T19:57:46.853Z,99839.34
2022-08-11T20:00:40.553Z,99839.34
2022-08-11T20:03:30.735Z,99839.41
2022-08-11T20:06:22.571Z,99847.53
2022-08-11T20:09:14.126Z,99847.56
2022-08-11T20:12:06.964Z,99856.78
2022-08-11T20:14:58.897Z,99858.78
2022-08-11T20:17:52.126Z,99851.56
2022-08-11T20:20:42.032Z,99863.03
2022-08-11T20:23:31.638Z,99845.06
2022-08-11T20:26:30.831Z,99851.19
2022-08-11T20:29:19.273Z,99844.09
2022-08-11T20:32:06.610Z,99852.31
2022-08-11T20:34:58.612Z,99855.06
2022-08-11T20:37:50.383Z,99858.78
2022-08-11T20:40:43.575Z,99856.22
2022-08-11T20:44:07.795Z,99851.84
2022-08-11T20:46:45.444Z,99864.41
2022-08-11T20:49:45.960Z,99859.97
2022-08-11T20:52:47.153Z,99862.66
2022-08-11T20:55:51.573Z,99863.66
2022-08-11T21:01:51.247Z,99861.31
2022-08-11T21:07:58.925Z,99865.88
2022-08-11T21:10:51.728Z,99871.25
2022-08-11T21:13:46.126Z,99878.56
2022-08-11T21:16:39.701Z,99879.59
2022-08-11T21:19:56.356Z,99875.19
2022-08-11T21:23:25.043Z,99881.44
2022-08-11T21:26:25.992Z,99880.53
2022-08-11T21:29:18.206Z,99883.22
2022-08-11T21:32:06.416Z,99881.41
2022-08-11T21:34:54.333Z,99885.81
2022-08-11T21:37:41.585Z,99885.81
2022-08-11T21:40:30.218Z,99889.28
2022-08-11T21:43:18.407Z,99888.28
2022-08-11T21:46:06.993Z,99886.50
2022-08-11T21:48:55.683Z,99891.91
2022-08-11T21:51:44.668Z,99887.53
2022-08-11T21:54:31.169Z,99889.31
2022-08-11T21:57:18.030Z,99887.66
2022-08-11T22:00:16.667Z,99889.50
2022-08-11T22:03:05.469Z,99884.97
2022-08-11T22:05:53.033Z,99890.34
2022-08-11T22:08:40.057Z,99891.25
2022-08-11T22:11:32.168Z,99889.59
2022-08-11T22:14:20.126Z,99881.72
2022-08-11T22:17:06.302Z,99886.34
2022-08-11T22:19:55.732Z,99886.41
2022-08-11T22:22:52.145Z,99888.28
2022-08-11T22:25:51.428Z,99883.00
2022-08-11T22:28:40.262Z,99880.38
2022-08-11T22:31:29.279Z,99881.38
2022-08-11T22:34:15.402Z,99876.13
2022-08-11T22:37:03.990Z,99883.25
2022-08-11T22:40:01.761Z,99888.63
2022-08-11T22:42:51.732Z,99898.41
2022-08-11T22:45:39.076Z,99894.84
2022-08-11T22:48:26.461Z,99891.28
2022-08-11T22:51:14.519Z,99888.66
2022-08-11T22:54:01.722Z,99883.41
2022-08-11T22:56:50.948Z,99888.81
2022-08-11T22:59:39.400Z,99887.97
2022-08-11T23:02:26.465Z,99887.09
2022-08-11T23:05:14.090Z,99885.38
2022-08-11T23:08:00.791Z,99889.75
2022-08-11T23:10:46.937Z,99891.38
2022-08-11T23:13:32.996Z,99892.28
2022-08-11T23:16:19.845Z,99885.94
2022-08-11T23:19:07.062Z,99891.22
2022-08-11T23:21:54.840Z,99887.66
2022-08-11T23:24:43.868Z,99892.16
2022-08-11T23:27:30.305Z,99885.06
2022-08-11T23:30:19.197Z,99889.47
2022-08-11T23:33:11.393Z,99888.56
2022-08-11T23:36:05.493Z,99895.72
2022-08-11T23:38:52.259Z,99887.66
2022-08-11T23:41:39.241Z,99900.09
2022-08-11T23:44:27.299Z,99902.81
2022-08-11T23:47:18.226Z,99889.44
2022-08-11T23:50:06.763Z,99892.06
2022-08-11T23:52:54.416Z,99895.63
2022-08-11T23:55:40.273Z,99886.69
2022-08-11T23:58:26.830Z,99886.69
